sensor_id;sensor_type;location;lat;lon;timestamp;temperature;humidity
9730;DHT22;4904;49.152;11.004;2024-01-25T00:00:52;8.20;99.90
9730;DHT22;4904;49.152;11.004;2024-01-25T00:03:19;8.20;99.90
9730;DHT22;4904;49.152;11.004;2024-01-25T00:05:48;8.30;99.90
9730;DHT22;4904;49.152;11.004;2024-01-25T00:08:15;8.20;99.90
9730;DHT22;4904;49.152;11.004;2024-01-25T00:10:42;8.20;99.90
9730;DHT22;4904;49.152;11.004;2024-01-25T00:13:09;8.20;99.90
9730;DHT22;4904;49.152;11.004;2024-01-25T00:15:37;8.20;99.90
9730;DHT22;4904;49.152;11.004;2024-01-25T00:18:04;8.20;99.90
9730;DHT22;4904;49.152;11.004;2024-01-25T00:20:31;8.20;99.90
9730;DHT22;4904;49.152;11.004;2024-01-25T00:23:00;8.10;99.90
9730;DHT22;4904;49.152;11.004;2024-01-25T00:25:27;8.20;99.90
9730;DHT22;4904;49.152;11.004;2024-01-25T00:27:54;8.20;99.90
9730;DHT22;4904;49.152;11.004;2024-01-25T00:30:21;8.30;99.90
9730;DHT22;4904;49.152;11.004;2024-01-25T00:32:48;8.30;99.90
9730;DHT22;4904;49.152;11.004;2024-01-25T00:35:16;8.20;99.90
9730;DHT22;4904;49.152;11.004;2024-01-25T00:37:43;8.20;99.90
9730;DHT22;4904;49.152;11.004;2024-01-25T00:40:12;8.20;99.90
9730;DHT22;4904;49.152;11.004;2024-01-25T00:42:42;8.20;99.90
9730;DHT22;4904;49.152;11.004;2024-01-25T00:45:10;8.20;99.90
9730;DHT22;4904;49.152;11.004;2024-01-25T00:47:38;8.20;99.90
9730;DHT22;4904;49.152;11.004;2024-01-25T00:50:06;8.20;99.90
9730;DHT22;4904;49.152;11.004;2024-01-25T00:52:34;8.20;99.90
9730;DHT22;4904;49.152;11.004;2024-01-25T00:55:02;8.10;99.90
9730;DHT22;4904;49.152;11.004;2024-01-25T00:57:31;8.10;99.90
9730;DHT22;4904;49.152;11.004;2024-01-25T00:59:59;8.10;99.90
9730;DHT22;4904;49.152;11.004;2024-01-25T01:02:27;8.00;99.90
9730;DHT22;4904;49.152;11.004;2024-01-25T01:04:57;8.00;99.90
9730;DHT22;4904;49.152;11.004;2024-01-25T01:07:28;8.00;99.90
9730;DHT22;4904;49.152;11.004;2024-01-25T01:09:55;8.00;99.90
9730;DHT22;4904;49.152;11.004;2024-01-25T01:12:22;8.00;99.90
9730;DHT22;4904;49.152;11.004;2024-01-25T01:14:50;8.00;99.90
9730;DHT22;4904;49.152;11.004;2024-01-25T01:17:17;8.00;99.90
9730;DHT22;4904;49.152;11.004;2024-01-25T01:19:44;8.10;99.90
9730;DHT22;4904;49.152;11.004;2024-01-25T01:22:11;8.00;99.90
9730;DHT22;4904;49.152;11.004;2024-01-25T01:24:38;8.00;99.90
9730;DHT22;4904;49.152;11.004;2024-01-25T01:27:05;8.00;99.90
9730;DHT22;4904;49.152;11.004;2024-01-25T01:29:33;8.00;99.90
9730;DHT22;4904;49.152;11.004;2024-01-25T01:32:02;7.90;99.90
9730;DHT22;4904;49.152;11.004;2024-01-25T01:34:34;8.00;99.90
9730;DHT22;4904;49.152;11.004;2024-01-25T01:37:01;8.00;99.90
9730;DHT22;4904;49.152;11.004;2024-01-25T01:39:29;8.00;99.90
9730;DHT22;4904;49.152;11.004;2024-01-25T01:41:56;8.00;99.90
9730;DHT22;4904;49.152;11.004;2024-01-25T01:44:23;8.00;99.90
9730;DHT22;4904;49.152;11.004;2024-01-25T01:46:50;8.00;99.90
9730;DHT22;4904;49.152;11.004;2024-01-25T01:49:22;7.90;99.90
9730;DHT22;4904;49.152;11.004;2024-01-25T01:52:01;8.00;99.90
9730;DHT22;4904;49.152;11.004;2024-01-25T01:54:28;8.00;99.90
9730;DHT22;4904;49.152;11.004;2024-01-25T01:56:55;7.90;99.90
9730;DHT22;4904;49.152;11.004;2024-01-25T01:59:22;8.00;99.90
9730;DHT22;4904;49.152;11.004;2024-01-25T02:01:51;8.00;99.90
9730;DHT22;4904;49.152;11.004;2024-01-25T02:04:18;8.00;99.90
9730;DHT22;4904;49.152;11.004;2024-01-25T02:06:50;7.90;99.90
9730;DHT22;4904;49.152;11.004;2024-01-25T02:09:19;7.90;99.90
9730;DHT22;4904;49.152;11.004;2024-01-25T02:11:46;8.00;99.90
9730;DHT22;4904;49.152;11.004;2024-01-25T02:14:16;7.90;99.90
9730;DHT22;4904;49.152;11.004;2024-01-25T02:16:43;7.90;99.90
9730;DHT22;4904;49.152;11.004;2024-01-25T02:19:12;7.90;99.90
9730;DHT22;4904;49.152;11.004;2024-01-25T02:21:41;7.90;99.90
9730;DHT22;4904;49.152;11.004;2024-01-25T02:24:11;8.00;99.90
9730;DHT22;4904;49.152;11.004;2024-01-25T02:26:38;7.90;99.90
9730;DHT22;4904;49.152;11.004;2024-01-25T02:29:05;7.80;99.90
9730;DHT22;4904;49.152;11.004;2024-01-25T02:31:33;7.90;99.90
9730;DHT22;4904;49.152;11.004;2024-01-25T02:34:06;7.90;99.90
9730;DHT22;4904;49.152;11.004;2024-01-25T02:36:34;7.90;99.90
9730;DHT22;4904;49.152;11.004;2024-01-25T02:39:01;7.90;99.90
9730;DHT22;4904;49.152;11.004;2024-01-25T02:41:33;7.90;99.90
9730;DHT22;4904;49.152;11.004;2024-01-25T02:44:00;7.90;99.90
9730;DHT22;4904;49.152;11.004;2024-01-25T02:46:27;7.80;99.90
9730;DHT22;4904;49.152;11.004;2024-01-25T02:48:54;7.90;99.90
9730;DHT22;4904;49.152;11.004;2024-01-25T02:51:21;7.90;99.90
9730;DHT22;4904;49.152;11.004;2024-01-25T02:53:51;8.00;99.90
9730;DHT22;4904;49.152;11.004;2024-01-25T02:56:23;8.00;99.90
9730;DHT22;4904;49.152;11.004;2024-01-25T02:59:10;7.90;99.90
9730;DHT22;4904;49.152;11.004;2024-01-25T03:01:41;7.90;99.90
9730;DHT22;4904;49.152;11.004;2024-01-25T03:04:08;7.90;99.90
9730;DHT22;4904;49.152;11.004;2024-01-25T03:06:35;7.80;99.90
9730;DHT22;4904;49.152;11.004;2024-01-25T03:09:02;8.20;99.90
9730;DHT22;4904;49.152;11.004;2024-01-25T03:11:32;8.40;99.90
9730;DHT22;4904;49.152;11.004;2024-01-25T03:13:59;7.80;99.90
9730;DHT22;4904;49.152;11.004;2024-01-25T03:16:30;7.80;99.90
9730;DHT22;4904;49.152;11.004;2024-01-25T03:18:59;7.80;99.90
9730;DHT22;4904;49.152;11.004;2024-01-25T03:21:26;8.10;99.90
9730;DHT22;4904;49.152;11.004;2024-01-25T03:23:53;7.80;99.90
9730;DHT22;4904;49.152;11.004;2024-01-25T03:26:20;7.70;99.90
9730;DHT22;4904;49.152;11.004;2024-01-25T03:28:47;7.80;99.90
9730;DHT22;4904;49.152;11.004;2024-01-25T03:31:14;7.80;99.90
9730;DHT22;4904;49.152;11.004;2024-01-25T03:33:43;7.70;99.90
9730;DHT22;4904;49.152;11.004;2024-01-25T03:36:14;7.70;99.90
9730;DHT22;4904;49.152;11.004;2024-01-25T03:38:41;7.60;99.90
9730;DHT22;4904;49.152;11.004;2024-01-25T03:41:08;7.70;99.90
9730;DHT22;4904;49.152;11.004;2024-01-25T03:43:38;7.60;99.90
9730;DHT22;4904;49.152;11.004;2024-01-25T03:46:05;7.50;99.90
9730;DHT22;4904;49.152;11.004;2024-01-25T03:48:32;7.60;99.90
9730;DHT22;4904;49.152;11.004;2024-01-25T03:51:03;7.60;99.90
9730;DHT22;4904;49.152;11.004;2024-01-25T03:53:30;7.50;99.90
9730;DHT22;4904;49.152;11.004;2024-01-25T03:55:58;7.50;99.90
9730;DHT22;4904;49.152;11.004;2024-01-25T03:58:25;7.50;99.90
9730;DHT22;4904;49.152;11.004;2024-01-25T04:00:52;7.50;99.90
9730;DHT22;4904;49.152;11.004;2024-01-25T04:03:18;7.50;99.90
9730;DHT22;4904;49.152;11.004;2024-01-25T04:05:48;7.50;99.90
9730;DHT22;4904;49.152;11.004;2024-01-25T04:08:16;7.50;99.90
9730;DHT22;4904;49.152;11.004;2024-01-25T04:10:43;8.80;99.90
9730;DHT22;4904;49.152;11.004;2024-01-25T04:13:10;7.50;99.90
9730;DHT22;4904;49.152;11.004;2024-01-25T04:15:37;7.50;99.90
9730;DHT22;4904;49.152;11.004;2024-01-25T04:18:06;7.50;99.90
9730;DHT22;4904;49.152;11.004;2024-01-25T04:20:36;7.50;99.90
9730;DHT22;4904;49.152;11.004;2024-01-25T04:23:12;7.70;99.90
9730;DHT22;4904;49.152;11.004;2024-01-25T04:25:41;7.50;99.90
9730;DHT22;4904;49.152;11.004;2024-01-25T04:28:09;7.50;99.90
9730;DHT22;4904;49.152;11.004;2024-01-25T04:30:38;7.50;99.90
9730;DHT22;4904;49.152;11.004;2024-01-25T04:33:05;7.50;99.90
9730;DHT22;4904;49.152;11.004;2024-01-25T04:35:32;7.50;99.90
9730;DHT22;4904;49.152;11.004;2024-01-25T04:37:59;7.60;99.90
9730;DHT22;4904;49.152;11.004;2024-01-25T04:40:27;7.60;99.90
9730;DHT22;4904;49.152;11.004;2024-01-25T04:43:01;7.60;99.90
9730;DHT22;4904;49.152;11.004;2024-01-25T04:45:28;7.50;99.90
9730;DHT22;4904;49.152;11.004;2024-01-25T04:47:58;7.60;99.90
9730;DHT22;4904;49.152;11.004;2024-01-25T04:50:24;7.60;99.90
9730;DHT22;4904;49.152;11.004;2024-01-25T04:52:51;7.60;99.90
9730;DHT22;4904;49.152;11.004;2024-01-25T04:55:18;7.60;99.90
9730;DHT22;4904;49.152;11.004;2024-01-25T04:57:46;7.50;99.90
9730;DHT22;4904;49.152;11.004;2024-01-25T05:00:16;7.60;99.90
9730;DHT22;4904;49.152;11.004;2024-01-25T05:02:43;7.40;99.90
9730;DHT22;4904;49.152;11.004;2024-01-25T05:05:10;7.50;99.90
9730;DHT22;4904;49.152;11.004;2024-01-25T05:07:37;7.40;99.90
9730;DHT22;4904;49.152;11.004;2024-01-25T05:10:04;7.40;99.90
9730;DHT22;4904;49.152;11.004;2024-01-25T05:12:31;7.50;99.90
9730;DHT22;4904;49.152;11.004;2024-01-25T05:14:58;7.40;99.90
9730;DHT22;4904;49.152;11.004;2024-01-25T05:17:26;7.50;99.90
9730;DHT22;4904;49.152;11.004;2024-01-25T05:19:53;7.30;99.90
9730;DHT22;4904;49.152;11.004;2024-01-25T05:22:21;7.30;99.90
9730;DHT22;4904;49.152;11.004;2024-01-25T05:24:48;7.20;99.90
9730;DHT22;4904;49.152;11.004;2024-01-25T05:27:15;7.10;99.90
9730;DHT22;4904;49.152;11.004;2024-01-25T05:29:42;7.10;99.90
9730;DHT22;4904;49.152;11.004;2024-01-25T05:32:09;7.10;99.90
9730;DHT22;4904;49.152;11.004;2024-01-25T05:34:38;7.10;99.90
9730;DHT22;4904;49.152;11.004;2024-01-25T05:37:05;7.00;99.90
9730;DHT22;4904;49.152;11.004;2024-01-25T05:39:32;7.00;99.90
9730;DHT22;4904;49.152;11.004;2024-01-25T05:41:59;7.00;99.90
9730;DHT22;4904;49.152;11.004;2024-01-25T05:44:26;7.80;99.90
9730;DHT22;4904;49.152;11.004;2024-01-25T05:46:53;6.90;99.90
9730;DHT22;4904;49.152;11.004;2024-01-25T05:49:22;7.00;99.90
9730;DHT22;4904;49.152;11.004;2024-01-25T05:51:50;7.00;99.90
9730;DHT22;4904;49.152;11.004;2024-01-25T05:54:17;6.80;99.90
9730;DHT22;4904;49.152;11.004;2024-01-25T05:56:44;6.70;99.90
9730;DHT22;4904;49.152;11.004;2024-01-25T05:59:12;6.70;99.90
9730;DHT22;4904;49.152;11.004;2024-01-25T06:01:40;6.70;99.90
9730;DHT22;4904;49.152;11.004;2024-01-25T06:04:07;6.70;99.90
9730;DHT22;4904;49.152;11.004;2024-01-25T06:06:34;6.70;99.90
9730;DHT22;4904;49.152;11.004;2024-01-25T06:09:02;6.60;99.90
9730;DHT22;4904;49.152;11.004;2024-01-25T06:11:31;6.60;99.90
9730;DHT22;4904;49.152;11.004;2024-01-25T06:13:59;6.70;99.90
9730;DHT22;4904;49.152;11.004;2024-01-25T06:16:26;6.70;99.90
9730;DHT22;4904;49.152;11.004;2024-01-25T06:18:53;6.70;99.90
9730;DHT22;4904;49.152;11.004;2024-01-25T06:21:20;6.70;99.90
9730;DHT22;4904;49.152;11.004;2024-01-25T06:23:47;6.70;99.90
9730;DHT22;4904;49.152;11.004;2024-01-25T06:26:15;6.60;99.90
9730;DHT22;4904;49.152;11.004;2024-01-25T06:28:42;6.80;99.90
9730;DHT22;4904;49.152;11.004;2024-01-25T06:31:09;6.80;99.90
9730;DHT22;4904;49.152;11.004;2024-01-25T06:33:36;6.80;99.90
9730;DHT22;4904;49.152;11.004;2024-01-25T06:36:04;6.90;99.90
9730;DHT22;4904;49.152;11.004;2024-01-25T06:38:31;6.90;99.90
9730;DHT22;4904;49.152;11.004;2024-01-25T06:40:58;6.90;99.90
9730;DHT22;4904;49.152;11.004;2024-01-25T06:43:26;6.90;99.90
9730;DHT22;4904;49.152;11.004;2024-01-25T06:45:53;7.30;99.90
9730;DHT22;4904;49.152;11.004;2024-01-25T06:48:20;6.90;99.90
9730;DHT22;4904;49.152;11.004;2024-01-25T06:50:47;7.10;99.90
9730;DHT22;4904;49.152;11.004;2024-01-25T06:53:16;6.80;99.90
9730;DHT22;4904;49.152;11.004;2024-01-25T06:55:43;6.80;99.90
9730;DHT22;4904;49.152;11.004;2024-01-25T06:58:10;6.70;99.90
9730;DHT22;4904;49.152;11.004;2024-01-25T07:00:38;6.60;99.90
9730;DHT22;4904;49.152;11.004;2024-01-25T07:03:08;6.60;99.90
9730;DHT22;4904;49.152;11.004;2024-01-25T07:05:35;6.60;99.90
9730;DHT22;4904;49.152;11.004;2024-01-25T07:08:02;6.50;99.90
9730;DHT22;4904;49.152;11.004;2024-01-25T07:10:30;6.50;99.90
9730;DHT22;4904;49.152;11.004;2024-01-25T07:12:57;6.60;99.90
9730;DHT22;4904;49.152;11.004;2024-01-25T07:15:25;6.50;99.90
9730;DHT22;4904;49.152;11.004;2024-01-25T07:17:53;6.50;99.90
9730;DHT22;4904;49.152;11.004;2024-01-25T07:20:20;6.50;99.90
9730;DHT22;4904;49.152;11.004;2024-01-25T07:22:47;6.50;99.90
9730;DHT22;4904;49.152;11.004;2024-01-25T07:25:14;6.60;99.90
9730;DHT22;4904;49.152;11.004;2024-01-25T07:27:44;6.50;99.90
9730;DHT22;4904;49.152;11.004;2024-01-25T07:30:12;6.50;99.90
9730;DHT22;4904;49.152;11.004;2024-01-25T07:32:39;6.50;99.90
9730;DHT22;4904;49.152;11.004;2024-01-25T07:35:09;6.40;99.90
9730;DHT22;4904;49.152;11.004;2024-01-25T07:37:36;6.40;99.90
9730;DHT22;4904;49.152;11.004;2024-01-25T07:40:04;6.40;99.90
9730;DHT22;4904;49.152;11.004;2024-01-25T07:42:32;6.40;99.90
9730;DHT22;4904;49.152;11.004;2024-01-25T07:44:59;6.40;99.90
9730;DHT22;4904;49.152;11.004;2024-01-25T07:47:26;6.40;99.90
9730;DHT22;4904;49.152;11.004;2024-01-25T07:49:54;6.40;99.90
9730;DHT22;4904;49.152;11.004;2024-01-25T07:52:22;6.40;99.90
9730;DHT22;4904;49.152;11.004;2024-01-25T07:54:49;6.40;99.90
9730;DHT22;4904;49.152;11.004;2024-01-25T07:57:16;6.40;99.90
9730;DHT22;4904;49.152;11.004;2024-01-25T07:59:43;6.50;99.90
9730;DHT22;4904;49.152;11.004;2024-01-25T08:02:10;6.50;99.90
9730;DHT22;4904;49.152;11.004;2024-01-25T08:04:37;6.50;99.90
9730;DHT22;4904;49.152;11.004;2024-01-25T08:07:04;6.50;99.90
9730;DHT22;4904;49.152;11.004;2024-01-25T08:09:32;6.50;99.90
9730;DHT22;4904;49.152;11.004;2024-01-25T08:11:59;6.40;99.90
9730;DHT22;4904;49.152;11.004;2024-01-25T08:14:26;6.40;99.90
9730;DHT22;4904;49.152;11.004;2024-01-25T08:16:53;6.40;99.90
9730;DHT22;4904;49.152;11.004;2024-01-25T08:19:21;6.40;99.90
9730;DHT22;4904;49.152;11.004;2024-01-25T08:21:48;6.50;99.90
9730;DHT22;4904;49.152;11.004;2024-01-25T08:24:15;6.50;99.90
9730;DHT22;4904;49.152;11.004;2024-01-25T08:26:43;6.60;99.90
9730;DHT22;4904;49.152;11.004;2024-01-25T08:29:11;6.60;99.90
9730;DHT22;4904;49.152;11.004;2024-01-25T08:31:38;6.60;99.90
9730;DHT22;4904;49.152;11.004;2024-01-25T08:34:04;6.70;99.90
9730;DHT22;4904;49.152;11.004;2024-01-25T08:36:31;6.70;99.90
9730;DHT22;4904;49.152;11.004;2024-01-25T08:38:58;6.70;99.90
9730;DHT22;4904;49.152;11.004;2024-01-25T08:41:29;6.70;99.90
9730;DHT22;4904;49.152;11.004;2024-01-25T08:43:59;6.70;99.90
9730;DHT22;4904;49.152;11.004;2024-01-25T08:46:27;6.70;99.90
9730;DHT22;4904;49.152;11.004;2024-01-25T08:48:54;6.80;99.90
9730;DHT22;4904;49.152;11.004;2024-01-25T08:51:21;6.80;99.90
9730;DHT22;4904;49.152;11.004;2024-01-25T08:53:48;6.80;99.90
9730;DHT22;4904;49.152;11.004;2024-01-25T08:56:17;6.80;99.90
9730;DHT22;4904;49.152;11.004;2024-01-25T08:58:44;6.90;99.90
9730;DHT22;4904;49.152;11.004;2024-01-25T09:01:14;6.90;99.90
9730;DHT22;4904;49.152;11.004;2024-01-25T09:03:41;7.00;99.90
9730;DHT22;4904;49.152;11.004;2024-01-25T09:06:08;7.00;99.90
9730;DHT22;4904;49.152;11.004;2024-01-25T09:08:35;7.00;99.90
9730;DHT22;4904;49.152;11.004;2024-01-25T09:11:03;7.10;99.90
9730;DHT22;4904;49.152;11.004;2024-01-25T09:13:30;7.20;99.90
9730;DHT22;4904;49.152;11.004;2024-01-25T09:15:58;7.30;99.90
9730;DHT22;4904;49.152;11.004;2024-01-25T09:18:27;7.30;99.90
9730;DHT22;4904;49.152;11.004;2024-01-25T09:20:54;7.30;99.90
9730;DHT22;4904;49.152;11.004;2024-01-25T09:23:21;7.30;99.90
9730;DHT22;4904;49.152;11.004;2024-01-25T09:25:48;7.30;99.90
9730;DHT22;4904;49.152;11.004;2024-01-25T09:28:17;7.40;99.90
9730;DHT22;4904;49.152;11.004;2024-01-25T09:30:44;7.40;99.90
9730;DHT22;4904;49.152;11.004;2024-01-25T09:33:14;7.30;99.90
9730;DHT22;4904;49.152;11.004;2024-01-25T09:35:42;7.40;99.90
9730;DHT22;4904;49.152;11.004;2024-01-25T09:38:12;7.40;99.90
9730;DHT22;4904;49.152;11.004;2024-01-25T09:40:39;7.50;99.90
9730;DHT22;4904;49.152;11.004;2024-01-25T09:43:06;7.50;99.90
9730;DHT22;4904;49.152;11.004;2024-01-25T09:45:33;7.50;99.90
9730;DHT22;4904;49.152;11.004;2024-01-25T09:48:01;7.60;99.90
9730;DHT22;4904;49.152;11.004;2024-01-25T09:50:30;7.60;99.90
9730;DHT22;4904;49.152;11.004;2024-01-25T09:53:00;7.60;99.90
9730;DHT22;4904;49.152;11.004;2024-01-25T09:55:32;7.60;99.90
9730;DHT22;4904;49.152;11.004;2024-01-25T09:58:03;7.50;99.90
9730;DHT22;4904;49.152;11.004;2024-01-25T10:00:33;7.50;99.90
9730;DHT22;4904;49.152;11.004;2024-01-25T10:03:00;7.40;99.90
9730;DHT22;4904;49.152;11.004;2024-01-25T10:05:27;7.40;99.90
9730;DHT22;4904;49.152;11.004;2024-01-25T10:07:57;7.40;99.90
9730;DHT22;4904;49.152;11.004;2024-01-25T10:10:32;7.50;99.90
9730;DHT22;4904;49.152;11.004;2024-01-25T10:13:00;7.50;99.90
9730;DHT22;4904;49.152;11.004;2024-01-25T10:15:31;7.50;99.90
9730;DHT22;4904;49.152;11.004;2024-01-25T10:17:58;7.60;99.90
9730;DHT22;4904;49.152;11.004;2024-01-25T10:20:26;7.60;99.90
9730;DHT22;4904;49.152;11.004;2024-01-25T10:22:53;7.60;99.90
9730;DHT22;4904;49.152;11.004;2024-01-25T10:25:20;7.70;99.90
9730;DHT22;4904;49.152;11.004;2024-01-25T10:27:48;7.80;99.90
9730;DHT22;4904;49.152;11.004;2024-01-25T10:30:16;7.80;99.90
9730;DHT22;4904;49.152;11.004;2024-01-25T10:32:43;7.80;99.90
9730;DHT22;4904;49.152;11.004;2024-01-25T10:35:12;7.80;99.90
9730;DHT22;4904;49.152;11.004;2024-01-25T10:37:41;7.80;99.90
9730;DHT22;4904;49.152;11.004;2024-01-25T10:40:10;7.80;99.90
9730;DHT22;4904;49.152;11.004;2024-01-25T10:42:38;7.70;99.90
9730;DHT22;4904;49.152;11.004;2024-01-25T10:45:08;7.70;99.90
9730;DHT22;4904;49.152;11.004;2024-01-25T10:47:35;7.70;99.90
9730;DHT22;4904;49.152;11.004;2024-01-25T10:50:07;7.70;99.90
9730;DHT22;4904;49.152;11.004;2024-01-25T10:52:36;7.80;99.90
9730;DHT22;4904;49.152;11.004;2024-01-25T10:55:04;8.00;99.90
9730;DHT22;4904;49.152;11.004;2024-01-25T10:57:38;8.00;99.90
9730;DHT22;4904;49.152;11.004;2024-01-25T11:00:10;8.00;99.90
9730;DHT22;4904;49.152;11.004;2024-01-25T11:02:39;8.00;99.90
9730;DHT22;4904;49.152;11.004;2024-01-25T11:05:09;8.10;99.90
9730;DHT22;4904;49.152;11.004;2024-01-25T11:07:47;8.10;99.90
9730;DHT22;4904;49.152;11.004;2024-01-25T11:10:17;8.00;99.90
9730;DHT22;4904;49.152;11.004;2024-01-25T11:12:49;8.00;99.90
9730;DHT22;4904;49.152;11.004;2024-01-25T11:15:22;8.00;99.90
9730;DHT22;4904;49.152;11.004;2024-01-25T11:17:56;8.10;99.90
9730;DHT22;4904;49.152;11.004;2024-01-25T11:20:24;8.10;99.90
9730;DHT22;4904;49.152;11.004;2024-01-25T11:22:56;8.20;99.90
9730;DHT22;4904;49.152;11.004;2024-01-25T11:25:27;8.20;99.90
9730;DHT22;4904;49.152;11.004;2024-01-25T11:27:55;8.20;99.90
9730;DHT22;4904;49.152;11.004;2024-01-25T11:30:23;8.30;99.90
9730;DHT22;4904;49.152;11.004;2024-01-25T11:32:50;8.30;99.90
9730;DHT22;4904;49.152;11.004;2024-01-25T11:35:17;8.40;99.90
9730;DHT22;4904;49.152;11.004;2024-01-25T11:37:45;8.40;99.90
9730;DHT22;4904;49.152;11.004;2024-01-25T11:40:13;8.50;99.90
9730;DHT22;4904;49.152;11.004;2024-01-25T11:42:42;8.50;99.90
9730;DHT22;4904;49.152;11.004;2024-01-25T11:45:11;8.50;99.90
9730;DHT22;4904;49.152;11.004;2024-01-25T11:47:40;8.50;99.90
9730;DHT22;4904;49.152;11.004;2024-01-25T11:50:09;8.60;99.90
9730;DHT22;4904;49.152;11.004;2024-01-25T11:52:37;8.50;99.90
9730;DHT22;4904;49.152;11.004;2024-01-25T11:55:06;8.60;99.90
9730;DHT22;4904;49.152;11.004;2024-01-25T11:57:35;8.50;99.90
9730;DHT22;4904;49.152;11.004;2024-01-25T12:00:05;8.40;99.90
9730;DHT22;4904;49.152;11.004;2024-01-25T12:02:32;8.80;99.90
9730;DHT22;4904;49.152;11.004;2024-01-25T12:05:02;8.80;99.90
9730;DHT22;4904;49.152;11.004;2024-01-25T12:07:31;8.70;99.90
9730;DHT22;4904;49.152;11.004;2024-01-25T12:09:59;8.70;99.90
9730;DHT22;4904;49.152;11.004;2024-01-25T12:12:28;8.60;99.90
9730;DHT22;4904;49.152;11.004;2024-01-25T12:14:58;8.60;99.90
9730;DHT22;4904;49.152;11.004;2024-01-25T12:17:29;8.70;99.90
9730;DHT22;4904;49.152;11.004;2024-01-25T12:19:57;8.80;99.90
9730;DHT22;4904;49.152;11.004;2024-01-25T12:22:27;8.80;99.90
9730;DHT22;4904;49.152;11.004;2024-01-25T12:24:58;8.80;99.90
9730;DHT22;4904;49.152;11.004;2024-01-25T12:27:26;8.80;99.90
9730;DHT22;4904;49.152;11.004;2024-01-25T12:29:53;8.80;99.90
9730;DHT22;4904;49.152;11.004;2024-01-25T12:32:21;8.70;99.90
9730;DHT22;4904;49.152;11.004;2024-01-25T12:34:54;8.60;99.90
9730;DHT22;4904;49.152;11.004;2024-01-25T12:37:21;8.50;99.90
9730;DHT22;4904;49.152;11.004;2024-01-25T12:39:51;8.50;99.90
9730;DHT22;4904;49.152;11.004;2024-01-25T12:42:18;8.60;99.90
9730;DHT22;4904;49.152;11.004;2024-01-25T12:44:46;8.50;99.90
9730;DHT22;4904;49.152;11.004;2024-01-25T12:47:15;8.50;99.90
9730;DHT22;4904;49.152;11.004;2024-01-25T12:49:44;8.60;99.90
9730;DHT22;4904;49.152;11.004;2024-01-25T12:52:12;8.60;99.90
9730;DHT22;4904;49.152;11.004;2024-01-25T12:54:40;8.60;99.90
9730;DHT22;4904;49.152;11.004;2024-01-25T12:57:08;8.60;99.90
9730;DHT22;4904;49.152;11.004;2024-01-25T12:59:36;8.60;99.90
9730;DHT22;4904;49.152;11.004;2024-01-25T13:02:04;8.50;99.90
9730;DHT22;4904;49.152;11.004;2024-01-25T13:04:32;8.60;99.90
9730;DHT22;4904;49.152;11.004;2024-01-25T13:06:59;8.60;99.90
9730;DHT22;4904;49.152;11.004;2024-01-25T13:09:27;8.70;99.90
9730;DHT22;4904;49.152;11.004;2024-01-25T13:11:55;8.70;99.90
9730;DHT22;4904;49.152;11.004;2024-01-25T13:14:23;8.70;99.90
9730;DHT22;4904;49.152;11.004;2024-01-25T13:16:50;8.70;99.90
9730;DHT22;4904;49.152;11.004;2024-01-25T13:19:17;8.80;99.90
9730;DHT22;4904;49.152;11.004;2024-01-25T13:21:44;8.70;99.90
9730;DHT22;4904;49.152;11.004;2024-01-25T13:24:11;8.70;99.90
9730;DHT22;4904;49.152;11.004;2024-01-25T13:26:37;8.80;99.90
9730;DHT22;4904;49.152;11.004;2024-01-25T13:29:04;8.80;99.90
9730;DHT22;4904;49.152;11.004;2024-01-25T13:31:32;8.80;99.90
9730;DHT22;4904;49.152;11.004;2024-01-25T13:33:59;8.90;99.90
9730;DHT22;4904;49.152;11.004;2024-01-25T13:36:26;8.80;99.90
9730;DHT22;4904;49.152;11.004;2024-01-25T13:38:53;8.80;99.90
9730;DHT22;4904;49.152;11.004;2024-01-25T13:41:20;8.70;99.90
9730;DHT22;4904;49.152;11.004;2024-01-25T13:43:47;8.70;99.90
9730;DHT22;4904;49.152;11.004;2024-01-25T13:46:14;8.70;99.90
9730;DHT22;4904;49.152;11.004;2024-01-25T13:48:42;8.70;99.90
9730;DHT22;4904;49.152;11.004;2024-01-25T13:51:09;8.70;99.90
9730;DHT22;4904;49.152;11.004;2024-01-25T13:53:36;8.70;99.90
9730;DHT22;4904;49.152;11.004;2024-01-25T13:56:03;8.70;99.90
9730;DHT22;4904;49.152;11.004;2024-01-25T13:58:30;8.60;99.90
9730;DHT22;4904;49.152;11.004;2024-01-25T14:00:57;8.70;99.90
9730;DHT22;4904;49.152;11.004;2024-01-25T14:03:23;8.70;99.90
9730;DHT22;4904;49.152;11.004;2024-01-25T14:05:52;8.80;99.90
9730;DHT22;4904;49.152;11.004;2024-01-25T14:08:21;8.80;99.90
9730;DHT22;4904;49.152;11.004;2024-01-25T14:10:48;8.90;99.90
9730;DHT22;4904;49.152;11.004;2024-01-25T14:13:15;8.90;99.90
9730;DHT22;4904;49.152;11.004;2024-01-25T14:15:41;8.80;99.90
9730;DHT22;4904;49.152;11.004;2024-01-25T14:18:08;8.80;99.90
9730;DHT22;4904;49.152;11.004;2024-01-25T14:20:35;8.80;99.90
9730;DHT22;4904;49.152;11.004;2024-01-25T14:23:04;8.70;99.90
9730;DHT22;4904;49.152;11.004;2024-01-25T14:25:31;8.70;99.90
9730;DHT22;4904;49.152;11.004;2024-01-25T14:27:58;8.70;99.90
9730;DHT22;4904;49.152;11.004;2024-01-25T14:30:25;8.70;99.90
9730;DHT22;4904;49.152;11.004;2024-01-25T14:32:52;8.70;99.90
9730;DHT22;4904;49.152;11.004;2024-01-25T14:35:19;8.70;99.90
9730;DHT22;4904;49.152;11.004;2024-01-25T14:37:46;8.70;99.90
9730;DHT22;4904;49.152;11.004;2024-01-25T14:40:14;8.70;99.90
9730;DHT22;4904;49.152;11.004;2024-01-25T14:42:41;8.60;99.90
9730;DHT22;4904;49.152;11.004;2024-01-25T14:45:08;8.50;99.90
9730;DHT22;4904;49.152;11.004;2024-01-25T14:47:35;8.60;99.90
9730;DHT22;4904;49.152;11.004;2024-01-25T14:50:02;8.60;99.90
9730;DHT22;4904;49.152;11.004;2024-01-25T14:52:29;8.60;99.90
9730;DHT22;4904;49.152;11.004;2024-01-25T14:54:59;8.70;99.90
9730;DHT22;4904;49.152;11.004;2024-01-25T14:57:27;8.60;99.90
9730;DHT22;4904;49.152;11.004;2024-01-25T14:59:54;8.60;99.90
9730;DHT22;4904;49.152;11.004;2024-01-25T15:02:21;8.60;99.90
9730;DHT22;4904;49.152;11.004;2024-01-25T15:04:48;8.60;99.90
9730;DHT22;4904;49.152;11.004;2024-01-25T15:07:16;8.50;99.90
9730;DHT22;4904;49.152;11.004;2024-01-25T15:09:47;8.50;99.90
9730;DHT22;4904;49.152;11.004;2024-01-25T15:12:13;8.50;99.90
9730;DHT22;4904;49.152;11.004;2024-01-25T15:14:42;8.50;99.90
9730;DHT22;4904;49.152;11.004;2024-01-25T15:17:09;8.50;99.90
9730;DHT22;4904;49.152;11.004;2024-01-25T15:19:36;8.40;99.90
9730;DHT22;4904;49.152;11.004;2024-01-25T15:22:03;8.40;99.90
9730;DHT22;4904;49.152;11.004;2024-01-25T15:24:30;8.40;99.90
9730;DHT22;4904;49.152;11.004;2024-01-25T15:26:58;8.50;99.90
9730;DHT22;4904;49.152;11.004;2024-01-25T15:29:25;8.50;99.90
9730;DHT22;4904;49.152;11.004;2024-01-25T15:31:53;8.50;99.90
9730;DHT22;4904;49.152;11.004;2024-01-25T15:34:20;8.50;99.90
9730;DHT22;4904;49.152;11.004;2024-01-25T15:36:46;8.60;99.90
9730;DHT22;4904;49.152;11.004;2024-01-25T15:39:14;8.60;99.90
9730;DHT22;4904;49.152;11.004;2024-01-25T15:41:41;8.60;99.90
9730;DHT22;4904;49.152;11.004;2024-01-25T15:44:08;8.60;99.90
9730;DHT22;4904;49.152;11.004;2024-01-25T15:46:35;8.60;99.90
9730;DHT22;4904;49.152;11.004;2024-01-25T15:49:03;8.60;99.90
9730;DHT22;4904;49.152;11.004;2024-01-25T15:51:30;8.60;99.90
9730;DHT22;4904;49.152;11.004;2024-01-25T15:53:57;8.60;99.90
9730;DHT22;4904;49.152;11.004;2024-01-25T15:56:26;8.60;99.90
9730;DHT22;4904;49.152;11.004;2024-01-25T15:58:53;8.50;99.90
9730;DHT22;4904;49.152;11.004;2024-01-25T16:01:20;8.40;99.90
9730;DHT22;4904;49.152;11.004;2024-01-25T16:03:47;8.40;99.90
9730;DHT22;4904;49.152;11.004;2024-01-25T16:06:15;8.40;99.90